Map

Track Data

SID SEASON NUMBER BASIN SUBBASIN NAME ISO_TIME NATURE LAT LON WMO_WIND WMO_PRES WMO_AGENCY TRACK_TYPE DIST2LAND LANDFALL IFLAG USA_AGENCY USA_ATCF_ID USA_LAT USA_LON USA_RECORD USA_STATUS USA_WIND USA_PRES USA_SSHS USA_R34_NE USA_R34_SE USA_R34_SW USA_R34_NW USA_R50_NE USA_R50_SE USA_R50_SW USA_R50_NW USA_R64_NE USA_R64_SE USA_R64_SW USA_R64_NW USA_POCI USA_ROCI USA_RMW USA_EYE TOKYO_LAT TOKYO_LON TOKYO_GRADE TOKYO_WIND TOKYO_PRES TOKYO_R50_DIR TOKYO_R50_LONG TOKYO_R50_SHORT TOKYO_R30_DIR TOKYO_R30_LONG TOKYO_R30_SHORT TOKYO_LAND CMA_LAT CMA_LON CMA_CAT CMA_WIND CMA_PRES HKO_LAT HKO_LON HKO_CAT HKO_WIND HKO_PRES NEWDELHI_LAT NEWDELHI_LON NEWDELHI_GRADE NEWDELHI_WIND NEWDELHI_PRES NEWDELHI_CI NEWDELHI_DP NEWDELHI_POCI REUNION_LAT REUNION_LON REUNION_TYPE REUNION_WIND REUNION_PRES REUNION_TNUM REUNION_CI REUNION_RMW REUNION_R34_NE REUNION_R34_SE REUNION_R34_SW REUNION_R34_NW REUNION_R50_NE REUNION_R50_SE REUNION_R50_SW REUNION_R50_NW REUNION_R64_NE REUNION_R64_SE REUNION_R64_SW REUNION_R64_NW BOM_LAT BOM_LON BOM_TYPE BOM_WIND BOM_PRES BOM_TNUM BOM_CI BOM_RMW BOM_R34_NE BOM_R34_SE BOM_R34_SW BOM_R34_NW BOM_R50_NE BOM_R50_SE BOM_R50_SW BOM_R50_NW BOM_R64_NE BOM_R64_SE BOM_R64_SW BOM_R64_NW BOM_ROCI BOM_POCI BOM_EYE BOM_POS_METHOD BOM_PRES_METHOD NADI_LAT NADI_LON NADI_CAT NADI_WIND NADI_PRES WELLINGTON_LAT WELLINGTON_LON WELLINGTON_WIND WELLINGTON_PRES DS824_LAT DS824_LON DS824_STAGE DS824_WIND DS824_PRES TD9636_LAT TD9636_LON TD9636_STAGE TD9636_WIND TD9636_PRES TD9635_LAT TD9635_LON TD9635_WIND TD9635_PRES TD9635_ROCI NEUMANN_LAT NEUMANN_LON NEUMANN_CLASS NEUMANN_WIND NEUMANN_PRES MLC_LAT MLC_LON MLC_CLASS MLC_WIND MLC_PRES USA_GUST BOM_GUST BOM_GUST_PER REUNION_GUST REUNION_GUST_PER USA_SEAHGT USA_SEARAD_NE USA_SEARAD_SE USA_SEARAD_SW USA_SEARAD_NW STORM_SPEED STORM_DIR
1930044S14129 1930 12 SI WA NOT_NAMED 1930-02-12 23:00:00 NR -14.1000 129.000 main 48 34 __________O___ -1 -14.1000 129.000 7 8 120
1930044S14129 1930 12 SI WA NOT_NAMED 1930-02-13 00:00:00 NR -14.1659 129.116 main 34 0 __________P___ -1 -14.1659 129.116 7 8 121
1930044S14129 1930 12 SI WA NOT_NAMED 1930-02-13 03:00:00 NR -14.3671 129.455 main 0 0 __________P___ -1 -14.3671 129.455 7 7 124
1930044S14129 1930 12 SI WA NOT_NAMED 1930-02-13 06:00:00 NR -14.5820 129.756 main 0 0 __________P___ -1 -14.5820 129.756 7 7 131
1930044S14129 1930 12 SI WA NOT_NAMED 1930-02-13 09:00:00 NR -14.8214 129.993 main 0 0 __________P___ -1 -14.8214 129.993 7 6 142
1930044S14129 1930 12 SI WA NOT_NAMED 1930-02-13 11:00:00 NR -15.0000 130.100 main 0 0 __________O___ -1 -15.0000 130.100 7 6 154
1930044S14129 1930 12 SI WA NOT_NAMED 1930-02-13 12:00:00 NR -15.0959 130.136 main 0 0 __________P___ -1 -15.0959 130.136 7 6 169
1930044S14129 1930 12 SI WA NOT_NAMED 1930-02-13 15:00:00 NR -15.3995 130.178 main 0 0 __________P___ -1 -15.3995 130.178 7 6 0
1930044S14129 1930 12 SI WA NOT_NAMED 1930-02-13 18:00:00 NR -15.6999 130.146 main 0 0 __________P___ -1 -15.6999 130.146 7 6 191
1930044S14129 1930 12 SI WA NOT_NAMED 1930-02-13 21:00:00 NR -15.9627 130.066 main 0 0 __________P___ -1 -15.9627 130.066 7 5 199
1930044S14129 1930 12 SI WA NOT_NAMED 1930-02-13 23:00:00 NR -16.1000 130.000 main 0 0 __________O___ -1 -16.1000 130.000 7 4 203
1930044S14129 1930 12 SI WA NOT_NAMED 1930-02-14 00:00:00 NR -16.1481 129.979 main 0 0 __________P___ -1 -16.1481 129.979 7 3 214
1930044S14129 1930 12 SI WA NOT_NAMED 1930-02-14 03:00:00 NR -16.2432 129.901 main 0 0 __________P___ -1 -16.2432 129.901 7 2 231
1930044S14129 1930 12 SI WA NOT_NAMED 1930-02-14 06:00:00 NR -16.2841 129.802 main 0 0 __________P___ -1 -16.2841 129.802 7 2 256
1930044S14129 1930 12 SI WA NOT_NAMED 1930-02-14 09:00:00 NR -16.2960 129.686 main 0 0 __________P___ -1 -16.2960 129.686 7 2 265
1930044S14129 1930 12 SI WA NOT_NAMED 1930-02-14 11:00:00 NR -16.3000 129.600 main 0 0 __________O___ -1 -16.3000 129.600 7 2 261
1930044S14129 1930 12 SI WA NOT_NAMED 1930-02-14 12:00:00 NR -16.3141 129.565 main 0 0 __________P___ -1 -16.3141 129.565 7 2 250
1930044S14129 1930 12 SI WA NOT_NAMED 1930-02-14 15:00:00 NR -16.3519 129.454 main 0 0 __________P___ -1 -16.3519 129.454 7 2 254
1930044S14129 1930 12 SI WA NOT_NAMED 1930-02-14 18:00:00 NR -16.3806 129.319 main 0 0 __________P___ -1 -16.3806 129.319 7 3 261
1930044S14129 1930 12 SI WA NOT_NAMED 1930-02-14 21:00:00 NR -16.3972 129.145 main 0 0 __________P___ -1 -16.3972 129.145 7 4 266
1930044S14129 1930 12 SI WA NOT_NAMED 1930-02-14 23:00:00 NR -16.4000 129.000 main 0 0 __________O___ -1 -16.4000 129.000 7 4 270
1930044S14129 1930 12 SI WA NOT_NAMED 1930-02-15 00:00:00 NR -16.3984 128.920 main 0 0 __________P___ -1 -16.3984 128.920 7 5 273
1930044S14129 1930 12 SI WA NOT_NAMED 1930-02-15 03:00:00 NR -16.3824 128.644 main 0 0 __________P___ -1 -16.3824 128.644 7 6 274
1930044S14129 1930 12 SI WA NOT_NAMED 1930-02-15 06:00:00 NR -16.3548 128.320 main 0 0 __________P___ -1 -16.3548 128.320 7 7 275
1930044S14129 1930 12 SI WA NOT_NAMED 1930-02-15 09:00:00 NR -16.3218 127.958 main 0 0 __________P___ -1 -16.3218 127.958 7 7 275
1930044S14129 1930 12 SI WA NOT_NAMED 1930-02-15 11:00:00 NR -16.3000 127.700 main 0 0 __________O___ -1 -16.3000 127.700 7 7 275
1930044S14129 1930 12 SI WA NOT_NAMED 1930-02-15 12:00:00 NR -16.2916 127.573 main 0 0 __________P___ -1 -16.2916 127.573 7 8 274
1930044S14129 1930 12 SI WA NOT_NAMED 1930-02-15 15:00:00 NR -16.2666 127.170 main 0 0 __________P___ -1 -16.2666 127.170 7 8 274
1930044S14129 1930 12 SI WA NOT_NAMED 1930-02-15 18:00:00 NR -16.2416 126.743 main 0 0 __________P___ -1 -16.2416 126.743 7 8 273
1930044S14129 1930 12 SI WA NOT_NAMED 1930-02-15 21:00:00 NR -16.2166 126.300 main 0 0 __________P___ -1 -16.2166 126.300 7 9 273
1930044S14129 1930 12 SI WA NOT_NAMED 1930-02-15 23:00:00 NR -16.2000 126.000 main 0 0 __________O___ -1 -16.2000 126.000 7 9 274
1930044S14129 1930 12 SI WA NOT_NAMED 1930-02-16 00:00:00 NR -16.1878 125.858 main 0 0 __________P___ -1 -16.1878 125.858 7 8 275
1930044S14129 1930 12 SI WA NOT_NAMED 1930-02-16 03:00:00 NR -16.1498 125.429 main 0 0 __________P___ -1 -16.1498 125.429 7 8 275
1930044S14129 1930 12 SI WA NOT_NAMED 1930-02-16 06:00:00 NR -16.1171 124.988 main 0 0 __________P___ -1 -16.1171 124.988 7 9 273
1930044S14129 1930 12 SI WA NOT_NAMED 1930-02-16 09:00:00 NR -16.0991 124.525 main 10 10 __________P___ -1 -16.0991 124.525 7 9 271
1930044S14129 1930 12 SI WA NOT_NAMED 1930-02-16 11:00:00 NR -16.1000 124.200 main 24 22 __________O___ -1 -16.1000 124.200 7 10 270
1930044S14129 1930 12 SI WA NOT_NAMED 1930-02-16 12:00:00 NR -16.0982 124.017 main 22 11 __________P___ -1 -16.0982 124.017 7 11 270
1930044S14129 1930 12 SI WA NOT_NAMED 1930-02-16 15:00:00 NR -16.1057 123.438 main 30 30 __________P___ -1 -16.1057 123.438 7 11 268
1930044S14129 1930 12 SI WA NOT_NAMED 1930-02-16 18:00:00 NR -16.1420 122.855 main 44 35 __________P___ -1 -16.1420 122.855 7 11 264
1930044S14129 1930 12 SI WA NOT_NAMED 1930-02-16 21:00:00 NR -16.2193 122.314 main 69 69 __________P___ -1 -16.2193 122.314 7 10 259
1930044S14129 1930 12 SI WA NOT_NAMED 1930-02-16 23:00:00 NR -16.3000 122.000 main 85 85 __________O___ -1 -16.3000 122.000 7 9 254
1930044S14129 1930 12 SI WA NOT_NAMED 1930-02-17 00:00:00 NR -16.3402 121.867 main 92 78 __________P___ -1 -16.3402 121.867 7 8 213
1930044S14129 1930 12 SI WA NOT_NAMED 1930-02-17 01:00:00 NR -16.5087 121.855 bom main 78 69 ______O___P___ -1 -17.0000 122.300 -16.3859 121.743 7 10 204
1930044S14129 1930 12 SI WA NOT_NAMED 1930-02-17 03:00:00 NR -16.7961 121.653 main 72 72 ______P___P___ -1 -17.3983 121.910 -16.4950 121.525 7 11 216
1930044S14129 1930 12 SI WA NOT_NAMED 1930-02-17 06:00:00 NR -17.2366 121.300 main 95 91 ______P___P___ -1 -17.9436 121.363 -16.7063 121.253 7 12 214
1930044S14129 1930 12 SI WA NOT_NAMED 1930-02-17 07:00:00 NR -17.4451 121.188 bom main 98 96 ______O___P___ -1 -18.1000 121.200 -16.7903 121.175 7 11 216
1930044S14129 1930 12 SI WA NOT_NAMED 1930-02-17 09:00:00 NR -17.6719 120.973 main 117 117 ______P___P___ -1 -18.3638 120.915 -16.9799 121.031 7 9 220
1930044S14129 1930 12 SI WA NOT_NAMED 1930-02-17 11:00:00 NR -17.8866 120.792 main 123 123 ______P___O___ -1 -18.5732 120.684 -17.2000 120.900 7 8 219
1930044S14129 1930 12 SI WA NOT_NAMED 1930-02-17 12:00:00 NR -17.9886 120.701 main 125 124 ______P___P___ -1 -18.6622 120.587 -17.3149 120.815 7 8 216
1930044S14129 1930 12 SI WA NOT_NAMED 1930-02-17 15:00:00 NR -18.2985 120.472 main 130 128 ______P___P___ -1 -18.8899 120.369 -17.7072 120.576 7 7 210
1930044S14129 1930 12 SI WA NOT_NAMED 1930-02-17 18:00:00 NR -18.6286 120.314 main 128 94 ______P___P___ -1 -19.0986 120.250 -18.1586 120.379 7 7 198
1930044S14129 1930 12 SI WA NOT_NAMED 1930-02-17 21:00:00 NR -18.9966 120.232 main 94 74 ______P___P___ -1 -19.3396 120.220 -18.6536 120.244 7 8 188
1930044S14129 1930 12 SI WA NOT_NAMED 1930-02-17 23:00:00 NR -19.2718 120.222 main 64 54 ______P___O___ -1 -19.5436 120.244 -19.0000 120.200 7 9 183
1930044S14129 1930 12 SI WA NOT_NAMED 1930-02-18 00:00:00 NR -19.4201 120.224 main 54 33 ______P___P___ -1 -19.6643 120.268 -19.1759 120.180 7 9 0
1930044S14129 1930 12 SI WA NOT_NAMED 1930-02-18 01:00:00 NR -19.5783 120.235 bom main 33 0 ______O___P___ -1 -19.8000 120.300 -19.3566 120.170 7 11 175
1930044S14129 1930 12 SI WA NOT_NAMED 1930-02-18 03:00:00 NR -19.9462 120.257 main 0 0 ______P___P___ -1 -20.1641 120.338 -19.7283 120.176 7 12 173
1930044S14129 1930 12 SI WA NOT_NAMED 1930-02-18 06:00:00 NR -20.5329 120.364 main 0 0 ______P___P___ -1 -20.7698 120.470 -20.2959 120.258 7 12 166
1930044S14129 1930 12 SI WA NOT_NAMED 1930-02-18 09:00:00 NR -21.1241 120.564 main 0 0 ______P___P___ -1 -21.3972 120.696 -20.8509 120.431 7 12 160
1930044S14129 1930 12 SI WA NOT_NAMED 1930-02-18 11:00:00 NR -21.5000 120.750 bom main 0 0 ______O___O___ -1 -21.8000 120.900 -21.2000 120.600 7 12 154
1930044S14129 1930 12 SI WA NOT_NAMED 1930-02-18 12:00:00 NR -21.6782 120.860 main 0 0 ______P___P___ -1 -21.9910 121.018 -21.3654 120.701 7 12 146
1930044S14129 1930 12 SI WA NOT_NAMED 1930-02-18 15:00:00 NR -22.1745 121.246 main 0 0 ______P___P___ -1 -22.5218 121.429 -21.8272 121.064 7 13 141
1930044S14129 1930 12 SI WA NOT_NAMED 1930-02-18 18:00:00 NR -22.6784 121.733 main 0 0 ______P___P___ -1 -23.0009 121.911 -22.2485 121.495 7 14 136
1930044S14129 1930 12 SI WA NOT_NAMED 1930-02-18 21:00:00 NR -23.1765 122.287 main 0 0 ______P___P___ -1 -23.4428 122.445 -22.6438 121.971 7 15 134
1930044S14129 1930 12 SI WA NOT_NAMED 1930-02-18 23:00:00 NR -23.5181 122.689 main 0 0 ______P___O___ -1 -23.7242 122.819 -22.9000 122.300 7 19 136
1930044S14129 1930 12 SI WA NOT_NAMED 1930-02-19 00:00:00 NR -23.8625 123.009 main 0 0 ______P_______ -1 -23.8625 123.009 7 20 136
1930044S14129 1930 12 SI WA NOT_NAMED 1930-02-19 01:00:00 NR -24.0000 123.200 bom main 0 ______O_______ -1 -24.0000 123.200 7 13 128

About IBTrACS Database

This database is a web-friendly format of International Best Track Archive for Climate Stewardship (IBTrACS), a global best track data archive curated by NOAA dating back to 1842.

Updated: 2021-10-27